Time;durP1;ratioP1;P1;durP2;ratioP2;P2;SDS_P1;SDS_P2;PMS_P1;PMS_P2;Temp;Humidity;BMP_temperature;BMP_pressure;BME280_temperature;BME280_humidity;BME280_pressure;Samples;Min_cycle;Max_cycle;Signal;HPM_P1;HPM_P2
2021/09/16 00:01:28;;;;;;;;;;;18.80;92.50;;;;;;4289657;33;43910;-82
2021/09/16 00:03:58;;;;;;;;;;;18.80;92.50;;;;;;4301715;33;43883;-82
2021/09/16 00:06:25;;;;;;;;;;;18.80;92.50;;;;;;4303018;33;44505;-82
2021/09/16 00:08:52;;;;;;;;;;;18.80;92.40;;;;;;4303097;33;43181;-82
2021/09/16 00:11:19;;;;;;;;;;;18.80;92.40;;;;;;4302928;33;42886;-82
2021/09/16 00:13:46;;;;;;;;;;;18.70;92.30;;;;;;4301495;33;42373;-82
2021/09/16 00:16:16;;;;;;;;;;;18.70;92.40;;;;;;4302734;33;42648;-82
2021/09/16 00:18:43;;;;;;;;;;;18.70;92.40;;;;;;4301854;33;43216;-82
2021/09/16 00:21:10;;;;;;;;;;;18.70;92.40;;;;;;4302538;33;43854;-82
2021/09/16 00:23:40;;;;;;;;;;;18.60;92.30;;;;;;4289840;33;45894;-82
2021/09/16 00:26:10;;;;;;;;;;;18.60;92.30;;;;;;4301401;33;42782;-81
2021/09/16 00:28:38;;;;;;;;;;;18.70;92.40;;;;;;4301308;33;43454;-82
2021/09/16 00:31:05;;;;;;;;;;;18.70;92.40;;;;;;4302260;33;43247;-82
2021/09/16 00:33:35;;;;;;;;;;;18.60;92.30;;;;;;4301482;33;44527;-82
2021/09/16 00:36:02;;;;;;;;;;;18.60;92.30;;;;;;4301449;33;43386;-82
2021/09/16 00:38:37;;;;;;;;;;;18.60;92.30;;;;;;4301184;33;43996;-81
2021/09/16 00:41:07;;;;;;;;;;;18.60;92.20;;;;;;4301233;33;42740;-82
2021/09/16 00:43:37;;;;;;;;;;;18.50;92.10;;;;;;4289600;33;43706;-81
2021/09/16 00:46:04;;;;;;;;;;;18.50;92.10;;;;;;4289590;33;42505;-82
2021/09/16 00:48:31;;;;;;;;;;;18.50;92.50;;;;;;4289125;33;44097;-81
2021/09/16 00:50:59;;;;;;;;;;;18.50;92.10;;;;;;4302006;33;20504;-81
2021/09/16 00:53:30;;;;;;;;;;;18.50;92.50;;;;;;4302456;33;46187;-82
2021/09/16 00:55:58;;;;;;;;;;;18.50;92.10;;;;;;4288908;33;42276;-82
2021/09/16 00:58:27;;;;;;;;;;;18.50;92.10;;;;;;4288851;33;43726;-81
2021/09/16 01:00:57;;;;;;;;;;;18.50;92.10;;;;;;4302262;33;44247;-82
2021/09/16 01:03:24;;;;;;;;;;;18.40;92.00;;;;;;4301026;33;43515;-82
2021/09/16 01:05:51;;;;;;;;;;;18.40;92.00;;;;;;4300300;33;43477;-82
2021/09/16 01:08:19;;;;;;;;;;;18.40;92.00;;;;;;4288786;33;43933;-82
2021/09/16 01:10:46;;;;;;;;;;;18.40;92.00;;;;;;4301669;33;44454;-82
2021/09/16 01:13:16;;;;;;;;;;;18.40;92.00;;;;;;4288711;33;42778;-82
2021/09/16 01:15:44;;;;;;;;;;;18.30;92.00;;;;;;4288642;33;43855;-81
2021/09/16 01:18:11;;;;;;;;;;;18.30;92.00;;;;;;4301679;33;42823;-82
2021/09/16 01:20:39;;;;;;;;;;;18.30;92.00;;;;;;4288626;33;45822;-82
2021/09/16 01:23:06;;;;;;;;;;;18.30;91.90;;;;;;4302354;33;44142;-82
2021/09/16 01:25:36;;;;;;;;;;;18.30;92.00;;;;;;4300376;33;44069;-82
2021/09/16 01:28:03;;;;;;;;;;;18.30;92.00;;;;;;4288615;33;43314;-82
2021/09/16 01:30:33;;;;;;;;;;;18.30;92.00;;;;;;4300333;33;43253;-82
2021/09/16 01:33:02;;;;;;;;;;;18.20;91.90;;;;;;4301772;33;43520;-82
2021/09/16 01:35:29;;;;;;;;;;;18.20;91.80;;;;;;4300446;33;42303;-82
2021/09/16 01:37:59;;;;;;;;;;;18.20;91.80;;;;;;4301895;33;44199;-82
2021/09/16 01:40:26;;;;;;;;;;;18.20;91.70;;;;;;4300376;33;44127;-83
2021/09/16 01:42:56;;;;;;;;;;;18.10;91.70;;;;;;4300789;33;44219;-82
2021/09/16 01:45:24;;;;;;;;;;;18.10;91.70;;;;;;4301762;33;42616;-82
2021/09/16 01:47:51;;;;;;;;;;;18.10;91.80;;;;;;4288433;33;43936;-82
2021/09/16 01:50:22;;;;;;;;;;;18.10;91.80;;;;;;4301701;33;45052;-82
2021/09/16 01:52:51;;;;;;;;;;;18.10;91.80;;;;;;4288694;33;44945;-82
2021/09/16 01:55:19;;;;;;;;;;;18.10;91.80;;;;;;4301619;33;45727;-82
2021/09/16 01:57:46;;;;;;;;;;;18.00;91.80;;;;;;4301290;33;43885;-82
2021/09/16 02:00:14;;;;;;;;;;;18.00;91.80;;;;;;4288250;33;43575;-82
2021/09/16 02:02:47;;;;;;;;;;;18.00;91.70;;;;;;4288424;33;43480;-82
2021/09/16 02:05:15;;;;;;;;;;;18.00;91.80;;;;;;4288444;33;42708;-82
2021/09/16 02:07:44;;;;;;;;;;;18.00;91.70;;;;;;4301509;33;45241;-82
2021/09/16 02:10:11;;;;;;;;;;;17.90;91.70;;;;;;4301340;33;44013;-82
2021/09/16 02:12:39;;;;;;;;;;;17.90;91.70;;;;;;4301028;33;43469;-83
2021/09/16 02:15:12;;;;;;;;;;;17.90;91.70;;;;;;4301305;33;43843;-82
2021/09/16 02:17:42;;;;;;;;;;;17.90;91.70;;;;;;4300475;33;43527;-82
2021/09/16 02:20:09;;;;;;;;;;;17.90;91.70;;;;;;4300151;33;46211;-82
2021/09/16 02:22:36;;;;;;;;;;;17.90;91.60;;;;;;4288083;33;42990;-82
2021/09/16 02:25:04;;;;;;;;;;;17.80;91.60;;;;;;4301044;33;43460;-82
2021/09/16 02:27:33;;;;;;;;;;;17.80;91.60;;;;;;4301345;33;45455;-82
2021/09/16 02:30:04;;;;;;;;;;;17.80;91.60;;;;;;4300911;33;43106;-82
2021/09/16 02:32:32;;;;;;;;;;;17.80;91.60;;;;;;4301241;33;43485;-82
2021/09/16 02:35:05;;;;;;;;;;;17.80;91.60;;;;;;4299811;33;44590;-82
2021/09/16 02:37:32;;;;;;;;;;;17.70;91.60;;;;;;4300872;33;43576;-82
2021/09/16 02:39:59;;;;;;;;;;;17.70;91.60;;;;;;4300316;33;43252;-82
2021/09/16 02:42:27;;;;;;;;;;;17.70;91.60;;;;;;4300423;33;43551;-82
2021/09/16 02:44:54;;;;;;;;;;;17.70;91.60;;;;;;4300062;33;44285;-81
2021/09/16 02:47:21;;;;;;;;;;;17.70;91.60;;;;;;4300333;33;43513;-82
2021/09/16 02:49:48;;;;;;;;;;;17.70;91.60;;;;;;4301302;33;43385;-82
2021/09/16 02:52:15;;;;;;;;;;;17.70;91.50;;;;;;4288562;33;20042;-82
2021/09/16 02:54:42;;;;;;;;;;;17.60;91.50;;;;;;4299647;33;44216;-82
2021/09/16 02:57:09;;;;;;;;;;;17.60;91.60;;;;;;4299679;33;45300;-82
2021/09/16 02:59:36;;;;;;;;;;;17.60;91.50;;;;;;4288313;33;43262;-82
2021/09/16 03:02:04;;;;;;;;;;;17.60;91.50;;;;;;4300615;33;43878;-82
2021/09/16 03:04:31;;;;;;;;;;;17.60;91.50;;;;;;4288054;33;43207;-82
2021/09/16 03:07:00;;;;;;;;;;;17.60;91.50;;;;;;4300651;33;43431;-82
2021/09/16 03:09:27;;;;;;;;;;;17.50;91.50;;;;;;4300959;33;42878;-82
2021/09/16 03:12:00;;;;;;;;;;;17.50;91.50;;;;;;4300967;33;43873;-82
2021/09/16 03:14:27;;;;;;;;;;;17.50;91.50;;;;;;4287947;33;43205;-82
2021/09/16 03:16:54;;;;;;;;;;;17.50;91.50;;;;;;4300575;33;43362;-82
2021/09/16 03:19:24;;;;;;;;;;;17.50;91.50;;;;;;4301129;33;44103;-82
2021/09/16 03:21:51;;;;;;;;;;;17.50;91.50;;;;;;4287948;33;45006;-82
2021/09/16 03:24:21;;;;;;;;;;;17.50;91.50;;;;;;4299761;33;42758;-82
2021/09/16 03:26:51;;;;;;;;;;;17.40;91.50;;;;;;4299450;33;44572;-82
2021/09/16 03:29:21;;;;;;;;;;;17.50;91.60;;;;;;4301835;33;45924;-82
2021/09/16 03:31:50;;;;;;;;;;;17.40;91.60;;;;;;4290499;33;43867;-82
2021/09/16 03:34:20;;;;;;;;;;;17.40;91.50;;;;;;4303264;33;43981;-82
2021/09/16 03:36:49;;;;;;;;;;;17.40;91.50;;;;;;4302050;33;44005;-82
2021/09/16 03:39:16;;;;;;;;;;;17.40;91.60;;;;;;4302485;33;44227;-82
2021/09/16 03:41:43;;;;;;;;;;;17.40;91.60;;;;;;4303477;33;43870;-82
2021/09/16 03:44:11;;;;;;;;;;;17.40;91.60;;;;;;4302914;33;43195;-82
2021/09/16 03:46:40;;;;;;;;;;;17.40;91.60;;;;;;4302919;33;43882;-82
2021/09/16 03:49:12;;;;;;;;;;;17.40;91.60;;;;;;4303547;33;43120;-82
2021/09/16 03:51:42;;;;;;;;;;;17.40;91.70;;;;;;4302227;33;43196;-82
2021/09/16 03:54:09;;;;;;;;;;;17.40;91.70;;;;;;4302213;33;43430;-82
2021/09/16 03:56:36;;;;;;;;;;;17.30;91.60;;;;;;4303197;33;44411;-82
2021/09/16 03:59:03;;;;;;;;;;;17.30;91.60;;;;;;4303279;33;43758;-82
2021/09/16 04:01:33;;;;;;;;;;;17.30;91.70;;;;;;4289639;33;44607;-82
2021/09/16 04:04:06;;;;;;;;;;;17.30;91.70;;;;;;4301635;33;43777;-82
2021/09/16 04:06:33;;;;;;;;;;;17.30;91.70;;;;;;4302740;33;42882;-81
2021/09/16 04:09:05;;;;;;;;;;;17.30;91.70;;;;;;4303136;33;44223;-82
2021/09/16 04:11:35;;;;;;;;;;;17.30;91.70;;;;;;4302876;33;43482;-81
2021/09/16 04:14:02;;;;;;;;;;;17.30;91.70;;;;;;4289534;33;43923;-81
2021/09/16 04:16:30;;;;;;;;;;;17.30;91.70;;;;;;4301791;33;44255;-81
2021/09/16 04:18:57;;;;;;;;;;;17.30;91.70;;;;;;4289515;33;42254;-81
2021/09/16 04:21:24;;;;;;;;;;;17.30;91.70;;;;;;4302948;33;42868;-81
2021/09/16 04:23:51;;;;;;;;;;;17.20;91.70;;;;;;4301934;33;43886;-81
2021/09/16 04:26:19;;;;;;;;;;;17.30;91.80;;;;;;4301512;33;42348;-82
2021/09/16 04:28:49;;;;;;;;;;;17.20;91.80;;;;;;4302923;33;43911;-82
2021/09/16 04:31:18;;;;;;;;;;;17.20;91.80;;;;;;4302246;33;43962;-81
2021/09/16 04:33:48;;;;;;;;;;;17.20;91.80;;;;;;4301360;33;42583;-81
2021/09/16 04:36:15;;;;;;;;;;;17.20;91.80;;;;;;4302240;33;43446;-81
2021/09/16 04:38:45;;;;;;;;;;;17.20;91.80;;;;;;4301502;33;45615;-81
2021/09/16 04:41:15;;;;;;;;;;;17.20;91.90;;;;;;4300308;33;43346;-81
2021/09/16 04:43:42;;;;;;;;;;;17.20;91.90;;;;;;4302562;33;44965;-81
2021/09/16 04:46:09;;;;;;;;;;;17.20;91.90;;;;;;4289519;33;43941;-81
2021/09/16 04:48:44;;;;;;;;;;;17.20;91.90;;;;;;4302071;33;43066;-81
2021/09/16 04:51:14;;;;;;;;;;;17.20;91.90;;;;;;4301350;33;43083;-81
2021/09/16 04:53:44;;;;;;;;;;;17.10;91.90;;;;;;4302894;33;31878;-81
2021/09/16 04:56:11;;;;;;;;;;;17.10;91.90;;;;;;4302510;33;43662;-81
2021/09/16 04:58:38;;;;;;;;;;;17.10;92.00;;;;;;4301908;33;43665;-81
2021/09/16 05:01:10;;;;;;;;;;;17.10;92.00;;;;;;4301888;33;44922;-81
2021/09/16 05:03:40;;;;;;;;;;;17.10;92.00;;;;;;4301908;33;42604;-81
2021/09/16 05:06:10;;;;;;;;;;;17.10;92.00;;;;;;4289666;33;44693;-81
2021/09/16 05:08:37;;;;;;;;;;;17.10;92.10;;;;;;4302353;33;43895;-81
2021/09/16 05:11:04;;;;;;;;;;;17.20;92.10;;;;;;4301794;33;43501;-83
2021/09/16 05:13:36;;;;;;;;;;;17.10;92.10;;;;;;4300693;33;44088;-81
2021/09/16 05:16:03;;;;;;;;;;;17.10;92.10;;;;;;4302142;33;43469;-81
2021/09/16 05:18:31;;;;;;;;;;;17.10;92.20;;;;;;4301609;33;42897;-81
2021/09/16 05:21:00;;;;;;;;;;;17.10;92.20;;;;;;4301620;33;44382;-81
2021/09/16 05:23:30;;;;;;;;;;;17.10;92.20;;;;;;4302192;33;43903;-81
2021/09/16 05:26:00;;;;;;;;;;;17.10;92.20;;;;;;4302084;33;44347;-81
2021/09/16 05:28:27;;;;;;;;;;;17.10;92.30;;;;;;4288853;33;42799;-81
2021/09/16 05:30:54;;;;;;;;;;;17.10;92.30;;;;;;4300773;33;46020;-81
2021/09/16 05:33:23;;;;;;;;;;;17.10;92.30;;;;;;4301561;33;43567;-81
2021/09/16 05:35:50;;;;;;;;;;;17.00;92.30;;;;;;4300433;33;44134;-81
2021/09/16 05:38:20;;;;;;;;;;;17.10;92.30;;;;;;4301428;33;43473;-80
2021/09/16 05:40:47;;;;;;;;;;;17.10;92.40;;;;;;4288607;33;46063;-81
2021/09/16 05:43:14;;;;;;;;;;;17.10;92.40;;;;;;4301404;33;43737;-81
2021/09/16 05:45:43;;;;;;;;;;;17.10;92.40;;;;;;4301704;33;43457;-81
2021/09/16 05:48:16;;;;;;;;;;;17.10;92.40;;;;;;4300574;33;43241;-81
2021/09/16 05:50:45;;;;;;;;;;;17.10;92.50;;;;;;4288577;33;43089;-81
2021/09/16 05:53:18;;;;;;;;;;;17.10;92.50;;;;;;4300973;33;43100;-81
2021/09/16 05:55:46;;;;;;;;;;;17.10;92.50;;;;;;4301656;33;42558;-81
2021/09/16 05:58:21;;;;;;;;;;;17.10;92.50;;;;;;4300683;33;44231;-81
2021/09/16 06:00:50;;;;;;;;;;;17.00;92.50;;;;;;4301545;33;42182;-81
2021/09/16 06:03:23;;;;;;;;;;;17.00;92.50;;;;;;4297613;33;44107;-81
2021/09/16 06:05:51;;;;;;;;;;;17.10;92.60;;;;;;4298113;33;45805;-81
2021/09/16 06:08:21;;;;;;;;;;;17.00;92.60;;;;;;4297823;33;45266;-81
2021/09/16 06:10:50;;;;;;;;;;;17.00;92.60;;;;;;4287003;33;42957;-81
2021/09/16 06:13:17;;;;;;;;;;;17.00;92.70;;;;;;4287286;33;43313;-81
2021/09/16 06:15:47;;;;;;;;;;;17.00;92.70;;;;;;4298158;33;43474;-82
2021/09/16 06:18:14;;;;;;;;;;;17.00;92.70;;;;;;4285494;33;42337;-81
2021/09/16 06:20:49;;;;;;;;;;;17.00;92.70;;;;;;4297917;33;43278;-81
2021/09/16 06:23:16;;;;;;;;;;;17.00;92.80;;;;;;4285621;33;43656;-81
2021/09/16 06:25:43;;;;;;;;;;;17.00;93.20;;;;;;4297523;33;44549;-81
2021/09/16 06:28:17;;;;;;;;;;;17.00;92.90;;;;;;4286616;33;41991;-81
2021/09/16 06:30:48;;;;;;;;;;;17.00;92.90;;;;;;4287039;33;45018;-82
2021/09/16 06:33:21;;;;;;;;;;;17.00;92.90;;;;;;4286977;33;43890;-82
2021/09/16 06:35:48;;;;;;;;;;;17.00;92.90;;;;;;4297918;33;43890;-81
2021/09/16 06:38:15;;;;;;;;;;;17.00;92.90;;;;;;4287019;33;43231;-81
2021/09/16 06:40:42;;;;;;;;;;;17.00;93.00;;;;;;4286535;33;44351;-81
2021/09/16 06:43:12;;;;;;;;;;;17.00;93.00;;;;;;4286797;33;42323;-82
2021/09/16 06:45:45;;;;;;;;;;;17.00;93.00;;;;;;4297705;33;43396;-81
2021/09/16 06:48:15;;;;;;;;;;;17.00;93.10;;;;;;4286962;33;44169;-81
2021/09/16 06:50:48;;;;;;;;;;;17.00;93.10;;;;;;4297325;33;43698;-81
2021/09/16 06:53:18;;;;;;;;;;;17.00;93.10;;;;;;4286881;33;44341;-81
2021/09/16 06:55:48;;;;;;;;;;;16.90;93.10;;;;;;4297912;33;19994;-81
2021/09/16 06:58:16;;;;;;;;;;;17.00;93.10;;;;;;4297175;33;43038;-81
2021/09/16 07:00:43;;;;;;;;;;;17.00;93.20;;;;;;4297563;33;43934;-81
2021/09/16 07:03:12;;;;;;;;;;;17.00;93.20;;;;;;4298339;33;42938;-81
2021/09/16 07:05:41;;;;;;;;;;;17.00;93.20;;;;;;4303394;33;44200;-81
2021/09/16 07:08:08;;;;;;;;;;;16.90;93.20;;;;;;4302987;33;42692;-83
2021/09/16 07:10:35;;;;;;;;;;;16.90;93.30;;;;;;4303766;33;42731;-81
2021/09/16 07:13:05;;;;;;;;;;;16.90;93.30;;;;;;4303986;33;43255;-81
2021/09/16 07:15:32;;;;;;;;;;;17.00;93.30;;;;;;4302322;33;43786;-81
2021/09/16 07:17:59;;;;;;;;;;;17.00;93.30;;;;;;4302679;33;45961;-81
2021/09/16 07:20:29;;;;;;;;;;;16.90;93.30;;;;;;4290547;33;42308;-81
2021/09/16 07:23:02;;;;;;;;;;;16.90;93.30;;;;;;4291468;33;44204;-80
2021/09/16 07:25:37;;;;;;;;;;;17.00;93.40;;;;;;4303687;33;43279;-81
2021/09/16 07:28:12;;;;;;;;;;;16.90;93.40;;;;;;4303716;33;43908;-81
2021/09/16 07:30:50;;;;;;;;;;;17.00;93.40;;;;;;4302727;33;44333;-81
2021/09/16 07:33:26;;;;;;;;;;;17.00;93.50;;;;;;4302332;33;43842;-81
2021/09/16 07:36:07;;;;;;;;;;;17.00;93.50;;;;;;4302140;33;44180;-81
2021/09/16 07:38:43;;;;;;;;;;;17.00;93.50;;;;;;4303061;33;43482;-81
2021/09/16 07:41:15;;;;;;;;;;;17.00;93.50;;;;;;4302689;33;46137;-81
2021/09/16 07:43:48;;;;;;;;;;;17.00;93.50;;;;;;4290493;33;44878;-81
2021/09/16 07:46:20;;;;;;;;;;;17.00;93.50;;;;;;4303279;33;43278;-80
2021/09/16 07:48:56;;;;;;;;;;;16.90;93.50;;;;;;4290461;33;43271;-80
2021/09/16 07:51:34;;;;;;;;;;;17.00;93.50;;;;;;4303423;33;42321;-80
2021/09/16 07:54:04;;;;;;;;;;;16.90;93.50;;;;;;4290135;33;44464;-80
2021/09/16 07:56:41;;;;;;;;;;;16.90;93.50;;;;;;4291632;33;20046;-80
2021/09/16 07:59:15;;;;;;;;;;;17.00;93.60;;;;;;4303273;33;43020;-80
2021/09/16 08:01:48;;;;;;;;;;;17.00;93.60;;;;;;4303070;33;44635;-80
2021/09/16 08:04:18;;;;;;;;;;;16.90;93.60;;;;;;4303412;33;43274;-80
2021/09/16 08:06:45;;;;;;;;;;;16.90;93.60;;;;;;4303081;33;43567;-80
2021/09/16 08:09:15;;;;;;;;;;;16.90;93.70;;;;;;4290149;33;43590;-80
2021/09/16 08:11:50;;;;;;;;;;;16.90;93.70;;;;;;4303078;33;43470;-80
2021/09/16 08:14:25;;;;;;;;;;;16.90;93.70;;;;;;4301882;33;43027;-80
2021/09/16 08:16:53;;;;;;;;;;;16.90;93.70;;;;;;4290126;33;43183;-80
2021/09/16 08:19:25;;;;;;;;;;;16.90;93.80;;;;;;4302771;33;43356;-80
2021/09/16 08:22:00;;;;;;;;;;;16.90;93.80;;;;;;4302811;33;44922;-80
2021/09/16 08:24:33;;;;;;;;;;;16.90;93.80;;;;;;4301877;33;44856;-80
2021/09/16 08:27:04;;;;;;;;;;;16.90;93.90;;;;;;4290780;33;20006;-80
2021/09/16 08:29:34;;;;;;;;;;;16.90;93.90;;;;;;4301803;33;43288;-80
2021/09/16 08:32:02;;;;;;;;;;;16.90;93.90;;;;;;4289665;33;44208;-80
2021/09/16 08:34:29;;;;;;;;;;;17.00;94.00;;;;;;4302289;33;43963;-80
2021/09/16 08:36:59;;;;;;;;;;;17.00;94.00;;;;;;4289626;33;44227;-81
2021/09/16 08:39:26;;;;;;;;;;;17.00;94.00;;;;;;4302658;33;44159;-81
2021/09/16 08:41:59;;;;;;;;;;;17.00;94.00;;;;;;4301294;33;43669;-81
2021/09/16 08:44:30;;;;;;;;;;;17.00;94.00;;;;;;4301417;33;44125;-81
2021/09/16 08:47:00;;;;;;;;;;;17.00;94.10;;;;;;4302605;33;42709;-80
2021/09/16 08:49:29;;;;;;;;;;;17.00;94.10;;;;;;4289517;33;43789;-81
2021/09/16 08:51:57;;;;;;;;;;;17.00;94.10;;;;;;4302129;33;43918;-80
2021/09/16 08:54:27;;;;;;;;;;;17.00;94.10;;;;;;4289810;33;44881;-80
2021/09/16 08:56:55;;;;;;;;;;;17.00;94.20;;;;;;4302701;33;43918;-80
2021/09/16 08:59:28;;;;;;;;;;;17.00;94.20;;;;;;4302349;33;43839;-80
2021/09/16 09:01:58;;;;;;;;;;;17.00;94.20;;;;;;4302165;33;44038;-80
2021/09/16 09:04:25;;;;;;;;;;;17.00;94.20;;;;;;4301881;33;42556;-80
2021/09/16 09:07:04;;;;;;;;;;;17.00;94.30;;;;;;4302125;33;43296;-80
2021/09/16 09:09:31;;;;;;;;;;;17.00;94.30;;;;;;4302409;33;43470;-80
2021/09/16 09:12:00;;;;;;;;;;;17.10;94.30;;;;;;4289385;33;44334;-80
2021/09/16 09:14:27;;;;;;;;;;;17.10;94.40;;;;;;4288760;33;43918;-80
2021/09/16 09:16:55;;;;;;;;;;;17.10;94.40;;;;;;4300557;33;43300;-80
2021/09/16 09:19:24;;;;;;;;;;;17.10;94.40;;;;;;4300962;33;43907;-80
2021/09/16 09:21:52;;;;;;;;;;;17.10;94.40;;;;;;4301090;33;43197;-80
2021/09/16 09:24:30;;;;;;;;;;;17.10;94.40;;;;;;4300951;33;44654;-80
2021/09/16 09:26:57;;;;;;;;;;;17.10;94.40;;;;;;4301468;33;44011;-80
2021/09/16 09:29:24;;;;;;;;;;;17.20;94.50;;;;;;4301898;33;20042;-80
2021/09/16 09:32:14;;;;;;;;;;;17.20;94.50;;;;;;4301817;33;43198;-80
2021/09/16 09:34:41;;;;;;;;;;;17.20;94.40;;;;;;4301692;33;44021;-80
2021/09/16 09:37:18;;;;;;;;;;;17.20;94.40;;;;;;4301468;33;43171;-80
2021/09/16 09:39:50;;;;;;;;;;;17.20;94.40;;;;;;4301855;33;44223;-80
2021/09/16 09:42:21;;;;;;;;;;;17.20;94.50;;;;;;4301171;33;43315;-80
2021/09/16 09:44:51;;;;;;;;;;;17.20;94.50;;;;;;4300509;33;42126;-80
2021/09/16 09:47:40;;;;;;;;;;;17.20;94.70;;;;;;4288523;33;44928;-80
2021/09/16 09:50:24;;;;;;;;;;;17.30;94.50;;;;;;4301657;33;43753;-80
2021/09/16 09:53:12;;;;;;;;;;;17.30;94.50;;;;;;4288945;33;43892;-81
2021/09/16 09:55:42;;;;;;;;;;;17.30;94.50;;;;;;4301612;33;44883;-80
2021/09/16 09:58:12;;;;;;;;;;;17.30;94.50;;;;;;4300661;33;44468;-81
2021/09/16 10:00:39;;;;;;;;;;;17.30;94.50;;;;;;4301682;33;43317;-81
2021/09/16 10:03:07;;;;;;;;;;;17.40;94.60;;;;;;4300234;33;43902;-80
2021/09/16 10:05:35;;;;;;;;;;;17.40;94.60;;;;;;4301633;33;43469;-80
2021/09/16 10:08:08;;;;;;;;;;;17.40;94.50;;;;;;4301354;33;44629;-80
2021/09/16 10:10:37;;;;;;;;;;;17.40;94.60;;;;;;4301130;33;42772;-80
2021/09/16 10:13:04;;;;;;;;;;;17.40;94.60;;;;;;4300987;33;43870;-80
2021/09/16 10:15:32;;;;;;;;;;;17.40;94.60;;;;;;4288434;33;44778;-81
2021/09/16 10:17:59;;;;;;;;;;;17.50;94.60;;;;;;4301026;33;42261;-80
2021/09/16 10:20:28;;;;;;;;;;;17.40;94.50;;;;;;4301021;33;44537;-80
2021/09/16 10:22:57;;;;;;;;;;;17.50;94.60;;;;;;4288337;33;43765;-80
2021/09/16 10:25:26;;;;;;;;;;;17.50;94.60;;;;;;4301315;33;43120;-80
2021/09/16 10:28:00;;;;;;;;;;;17.50;94.50;;;;;;4288304;33;44627;-80
2021/09/16 10:30:30;;;;;;;;;;;17.50;94.50;;;;;;4288013;33;42911;-80
2021/09/16 10:33:05;;;;;;;;;;;17.50;94.50;;;;;;4287880;33;44192;-80
2021/09/16 10:35:36;;;;;;;;;;;17.60;94.50;;;;;;4300856;33;43356;-80
2021/09/16 10:38:19;;;;;;;;;;;17.60;94.50;;;;;;4301263;33;46007;-80
2021/09/16 10:40:46;;;;;;;;;;;17.60;94.50;;;;;;4303841;33;43536;-81
2021/09/16 10:43:23;;;;;;;;;;;17.60;94.50;;;;;;4303785;33;43109;-81
2021/09/16 10:45:51;;;;;;;;;;;17.60;94.50;;;;;;4303354;33;44083;-80
2021/09/16 10:48:18;;;;;;;;;;;17.70;94.50;;;;;;4291219;33;44202;-80
2021/09/16 10:50:46;;;;;;;;;;;17.70;94.50;;;;;;4303132;33;42373;-80
2021/09/16 10:53:35;;;;;;;;;;;17.70;94.50;;;;;;4291469;33;45800;-80
2021/09/16 10:56:06;;;;;;;;;;;17.70;94.50;;;;;;4303874;33;42774;-80
2021/09/16 10:58:36;;;;;;;;;;;17.70;94.40;;;;;;4304225;33;43192;-80
2021/09/16 11:01:03;;;;;;;;;;;17.70;94.40;;;;;;4303994;33;29351;-80
2021/09/16 11:03:51;;;;;;;;;;;17.70;94.40;;;;;;4303370;33;43317;-80
2021/09/16 11:06:37;;;;;;;;;;;17.80;94.40;;;;;;4290911;33;44755;-80
2021/09/16 11:09:04;;;;;;;;;;;17.80;94.40;;;;;;4304082;33;45708;-80
2021/09/16 11:12:07;;;;;;;;;;;17.80;94.40;;;;;;4303734;33;43835;-81
2021/09/16 11:14:40;;;;;;;;;;;17.80;94.40;;;;;;4261463;33;44121;-80
2021/09/16 11:17:09;;;;;;;;;;;17.80;94.40;;;;;;4286008;33;42832;-80
2021/09/16 11:19:54;;;;;;;;;;;17.80;94.40;;;;;;4303736;33;42818;-80
2021/09/16 11:22:24;;;;;;;;;;;17.80;94.30;;;;;;4303814;33;44088;-80
2021/09/16 11:24:54;;;;;;;;;;;17.90;94.30;;;;;;4303321;33;43308;-80
2021/09/16 11:27:27;;;;;;;;;;;17.80;94.30;;;;;;4302195;33;44254;-80
2021/09/16 11:29:57;;;;;;;;;;;17.90;94.30;;;;;;4302846;33;43841;-80
2021/09/16 11:32:36;;;;;;;;;;;17.90;94.30;;;;;;4303227;33;43873;-80
2021/09/16 11:35:09;;;;;;;;;;;17.90;94.30;;;;;;4303731;33;43554;-80
2021/09/16 11:37:42;;;;;;;;;;;17.90;94.30;;;;;;4303034;33;42898;-80
2021/09/16 11:40:14;;;;;;;;;;;18.00;94.30;;;;;;4302811;33;43985;-80
2021/09/16 11:42:42;;;;;;;;;;;18.00;94.30;;;;;;4302100;33;43859;-80
2021/09/16 11:45:10;;;;;;;;;;;18.00;94.30;;;;;;4303357;33;42410;-80
2021/09/16 11:47:38;;;;;;;;;;;18.00;94.20;;;;;;4301943;33;42644;-80
2021/09/16 11:50:06;;;;;;;;;;;18.10;94.20;;;;;;4303139;33;43289;-80
2021/09/16 11:52:36;;;;;;;;;;;18.10;94.20;;;;;;4290144;33;44142;-80
2021/09/16 11:55:07;;;;;;;;;;;18.10;94.20;;;;;;4302084;33;43243;-80
2021/09/16 11:57:54;;;;;;;;;;;18.20;94.20;;;;;;4303361;33;43891;-80
2021/09/16 12:00:31;;;;;;;;;;;18.20;94.10;;;;;;4303224;33;43977;-80
2021/09/16 12:02:59;;;;;;;;;;;18.30;94.10;;;;;;4290063;33;43509;-80
2021/09/16 12:05:32;;;;;;;;;;;18.30;94.10;;;;;;4303002;33;44138;-80
2021/09/16 12:08:00;;;;;;;;;;;18.30;94.00;;;;;;4303209;33;42553;-80
2021/09/16 12:10:37;;;;;;;;;;;18.30;94.00;;;;;;4302219;33;43171;-80
2021/09/16 12:13:07;;;;;;;;;;;18.40;94.00;;;;;;4302649;33;43377;-80
2021/09/16 12:15:36;;;;;;;;;;;18.40;94.00;;;;;;4301479;33;44217;-80
2021/09/16 12:18:04;;;;;;;;;;;18.40;94.00;;;;;;4302653;33;43169;-80
2021/09/16 12:20:31;;;;;;;;;;;18.50;94.00;;;;;;4290020;33;43961;-80
2021/09/16 12:22:58;;;;;;;;;;;18.50;94.00;;;;;;4289406;33;43873;-80
2021/09/16 12:25:29;;;;;;;;;;;18.50;93.80;;;;;;4289526;33;43914;-80
2021/09/16 12:28:06;;;;;;;;;;;18.60;93.90;;;;;;4302391;33;43926;-80
2021/09/16 12:30:34;;;;;;;;;;;18.60;93.90;;;;;;4289809;33;44287;-79
2021/09/16 12:33:01;;;;;;;;;;;18.60;93.90;;;;;;4301790;33;45964;-80
2021/09/16 12:35:31;;;;;;;;;;;18.60;93.70;;;;;;4303063;33;20002;-79
2021/09/16 12:38:02;;;;;;;;;;;18.70;93.70;;;;;;4302417;33;44152;-80
2021/09/16 12:40:29;;;;;;;;;;;18.70;93.70;;;;;;4302660;33;43031;-80
2021/09/16 12:43:06;;;;;;;;;;;18.70;93.60;;;;;;4301396;33;43860;-80
2021/09/16 12:45:33;;;;;;;;;;;18.80;93.70;;;;;;4301254;33;43920;-79
2021/09/16 12:48:00;;;;;;;;;;;18.80;93.70;;;;;;4301101;33;43948;-79
2021/09/16 12:50:27;;;;;;;;;;;18.80;93.70;;;;;;4302768;33;43193;-79
2021/09/16 12:53:00;;;;;;;;;;;18.90;93.70;;;;;;4302644;33;43375;-79
2021/09/16 12:55:27;;;;;;;;;;;18.90;93.60;;;;;;4302447;33;45009;-79
2021/09/16 12:58:04;;;;;;;;;;;18.90;93.60;;;;;;4302460;33;43557;-80
2021/09/16 13:00:34;;;;;;;;;;;18.90;93.70;;;;;;4302449;33;43971;-79
2021/09/16 13:03:02;;;;;;;;;;;19.00;93.70;;;;;;4300350;33;43987;-80
2021/09/16 13:05:32;;;;;;;;;;;19.00;93.60;;;;;;4302751;33;20007;-79
2021/09/16 13:08:12;;;;;;;;;;;19.00;93.60;;;;;;4289334;33;44692;-80
2021/09/16 13:10:42;;;;;;;;;;;19.00;93.70;;;;;;4302299;33;43878;-79
2021/09/16 13:13:11;;;;;;;;;;;19.00;93.60;;;;;;4289265;33;43420;-79
2021/09/16 13:15:41;;;;;;;;;;;19.10;93.60;;;;;;4301283;33;43298;-79
2021/09/16 13:18:08;;;;;;;;;;;19.10;93.60;;;;;;4288927;33;44284;-79
2021/09/16 13:20:36;;;;;;;;;;;19.10;93.60;;;;;;4302080;33;42120;-80
2021/09/16 13:23:06;;;;;;;;;;;19.20;93.60;;;;;;4302030;33;43739;-79
2021/09/16 13:25:34;;;;;;;;;;;19.20;93.60;;;;;;4301791;33;44335;-79
2021/09/16 13:28:02;;;;;;;;;;;19.20;93.60;;;;;;4301745;33;43477;-79
2021/09/16 13:30:29;;;;;;;;;;;19.30;94.00;;;;;;4301692;33;44330;-79
2021/09/16 13:32:56;;;;;;;;;;;19.40;93.60;;;;;;4301734;33;42867;-79
2021/09/16 13:35:28;;;;;;;;;;;19.40;93.50;;;;;;4301415;33;42878;-79
2021/09/16 13:37:55;;;;;;;;;;;19.40;93.60;;;;;;4301430;33;44404;-78
2021/09/16 13:40:23;;;;;;;;;;;19.40;93.50;;;;;;4301451;33;43045;-79
2021/09/16 13:42:50;;;;;;;;;;;19.40;93.40;;;;;;4301460;33;42993;-79
2021/09/16 13:45:17;;;;;;;;;;;19.50;93.30;;;;;;4301698;33;44230;-79
2021/09/16 13:47:47;;;;;;;;;;;19.50;93.30;;;;;;4301756;33;44094;-79
2021/09/16 13:50:15;;;;;;;;;;;19.60;93.30;;;;;;4300300;33;42748;-79
2021/09/16 13:52:45;;;;;;;;;;;19.60;93.30;;;;;;4288245;33;43827;-79
2021/09/16 13:55:15;;;;;;;;;;;19.60;93.20;;;;;;4301828;33;43017;-79
2021/09/16 13:57:46;;;;;;;;;;;19.60;93.10;;;;;;4301707;33;44605;-79
2021/09/16 14:00:19;;;;;;;;;;;19.60;93.00;;;;;;4289098;33;43467;-79
2021/09/16 14:02:50;;;;;;;;;;;19.70;93.00;;;;;;4288331;33;43878;-79
2021/09/16 14:05:17;;;;;;;;;;;19.70;92.90;;;;;;4300589;33;43248;-79
2021/09/16 14:07:44;;;;;;;;;;;19.70;92.90;;;;;;4300775;33;43967;-79
2021/09/16 14:10:13;;;;;;;;;;;19.70;92.90;;;;;;4288494;33;43814;-79
2021/09/16 14:12:40;;;;;;;;;;;19.70;92.90;;;;;;4300989;33;42849;-79
2021/09/16 14:15:07;;;;;;;;;;;19.80;92.90;;;;;;4300455;33;43866;-79
2021/09/16 14:17:35;;;;;;;;;;;19.80;92.80;;;;;;4301526;33;43477;-79
2021/09/16 14:20:06;;;;;;;;;;;19.80;92.90;;;;;;4299855;33;45338;-79
2021/09/16 14:22:33;;;;;;;;;;;19.90;92.90;;;;;;4300504;33;45102;-79
2021/09/16 14:25:03;;;;;;;;;;;19.90;92.80;;;;;;4301082;33;44295;-79
2021/09/16 14:27:33;;;;;;;;;;;19.90;92.70;;;;;;4299842;33;43568;-79
2021/09/16 14:30:03;;;;;;;;;;;19.90;92.60;;;;;;4288425;33;46023;-78
2021/09/16 14:32:32;;;;;;;;;;;20.00;92.60;;;;;;4300369;33;43482;-79